sensor_id;sensor_type;location;lat;lon;timestamp;temperature;humidity
5023;DHT22;2530;47.990;7.866;2023-10-09T00:02:11;13.30;1.00
5023;DHT22;2530;47.990;7.866;2023-10-09T00:04:38;12.80;1.00
5023;DHT22;2530;47.990;7.866;2023-10-09T00:07:07;12.40;1.00
5023;DHT22;2530;47.990;7.866;2023-10-09T00:09:36;12.80;1.00
5023;DHT22;2530;47.990;7.866;2023-10-09T00:12:16;12.60;1.00
5023;DHT22;2530;47.990;7.866;2023-10-09T00:14:42;13.40;1.00
5023;DHT22;2530;47.990;7.866;2023-10-09T00:17:15;12.80;1.00
5023;DHT22;2530;47.990;7.866;2023-10-09T00:19:40;12.40;1.00
5023;DHT22;2530;47.990;7.866;2023-10-09T00:22:08;12.70;1.00
5023;DHT22;2530;47.990;7.866;2023-10-09T00:24:50;11.90;1.00
5023;DHT22;2530;47.990;7.866;2023-10-09T00:27:25;13.20;1.00
5023;DHT22;2530;47.990;7.866;2023-10-09T00:29:56;13.10;1.00
5023;DHT22;2530;47.990;7.866;2023-10-09T00:32:22;12.40;1.00
5023;DHT22;2530;47.990;7.866;2023-10-09T00:34:49;12.40;1.00
5023;DHT22;2530;47.990;7.866;2023-10-09T00:37:16;12.60;1.00
5023;DHT22;2530;47.990;7.866;2023-10-09T00:39:45;12.60;1.00
5023;DHT22;2530;47.990;7.866;2023-10-09T00:42:13;12.50;1.00
5023;DHT22;2530;47.990;7.866;2023-10-09T00:44:53;12.60;1.00
5023;DHT22;2530;47.990;7.866;2023-10-09T00:47:19;12.60;1.00
5023;DHT22;2530;47.990;7.866;2023-10-09T00:49:57;12.70;1.00
5023;DHT22;2530;47.990;7.866;2023-10-09T00:52:37;12.90;1.00
5023;DHT22;2530;47.990;7.866;2023-10-09T00:55:05;12.50;1.00
5023;DHT22;2530;47.990;7.866;2023-10-09T00:57:41;13.00;1.00
5023;DHT22;2530;47.990;7.866;2023-10-09T01:00:07;12.20;1.00
5023;DHT22;2530;47.990;7.866;2023-10-09T01:02:52;12.90;1.00
5023;DHT22;2530;47.990;7.866;2023-10-09T01:05:27;13.40;1.00
5023;DHT22;2530;47.990;7.866;2023-10-09T01:07:54;12.40;1.00
5023;DHT22;2530;47.990;7.866;2023-10-09T01:10:23;12.10;1.00
5023;DHT22;2530;47.990;7.866;2023-10-09T01:12:51;12.40;1.00
5023;DHT22;2530;47.990;7.866;2023-10-09T01:15:20;12.40;1.00
5023;DHT22;2530;47.990;7.866;2023-10-09T01:18:02;12.70;1.00
5023;DHT22;2530;47.990;7.866;2023-10-09T01:20:27;12.90;1.00
5023;DHT22;2530;47.990;7.866;2023-10-09T01:23:01;12.90;1.00
5023;DHT22;2530;47.990;7.866;2023-10-09T01:25:26;12.80;1.00
5023;DHT22;2530;47.990;7.866;2023-10-09T01:28:04;12.90;1.00
5023;DHT22;2530;47.990;7.866;2023-10-09T01:30:30;12.80;1.00
5023;DHT22;2530;47.990;7.866;2023-10-09T01:32:58;12.90;1.00
5023;DHT22;2530;47.990;7.866;2023-10-09T01:35:37;13.00;1.00
5023;DHT22;2530;47.990;7.866;2023-10-09T01:38:11;12.60;1.00
5023;DHT22;2530;47.990;7.866;2023-10-09T01:40:39;12.90;1.00
5023;DHT22;2530;47.990;7.866;2023-10-09T01:43:04;12.50;1.00
5023;DHT22;2530;47.990;7.866;2023-10-09T01:45:30;12.90;1.00
5023;DHT22;2530;47.990;7.866;2023-10-09T01:48:07;12.30;1.00
5023;DHT22;2530;47.990;7.866;2023-10-09T01:50:34;13.10;1.00
5023;DHT22;2530;47.990;7.866;2023-10-09T01:53:01;12.10;1.00
5023;DHT22;2530;47.990;7.866;2023-10-09T01:55:29;13.20;1.00
5023;DHT22;2530;47.990;7.866;2023-10-09T01:58:00;12.90;1.00
5023;DHT22;2530;47.990;7.866;2023-10-09T02:00:31;12.90;1.00
5023;DHT22;2530;47.990;7.866;2023-10-09T02:03:00;13.00;1.00
5023;DHT22;2530;47.990;7.866;2023-10-09T02:05:30;13.00;1.00
5023;DHT22;2530;47.990;7.866;2023-10-09T02:07:59;13.00;1.00
5023;DHT22;2530;47.990;7.866;2023-10-09T02:10:24;13.00;1.00
5023;DHT22;2530;47.990;7.866;2023-10-09T02:12:50;12.80;1.00
5023;DHT22;2530;47.990;7.866;2023-10-09T02:15:23;12.80;1.00
5023;DHT22;2530;47.990;7.866;2023-10-09T02:18:11;13.30;1.00
5023;DHT22;2530;47.990;7.866;2023-10-09T02:23:38;12.90;1.00
5023;DHT22;2530;47.990;7.866;2023-10-09T02:26:17;12.80;1.00
5023;DHT22;2530;47.990;7.866;2023-10-09T02:29:05;12.80;1.00
5023;DHT22;2530;47.990;7.866;2023-10-09T02:31:40;12.80;1.00
5023;DHT22;2530;47.990;7.866;2023-10-09T02:34:07;12.70;1.00
5023;DHT22;2530;47.990;7.866;2023-10-09T02:36:36;12.60;1.00
5023;DHT22;2530;47.990;7.866;2023-10-09T02:39:08;12.70;1.00
5023;DHT22;2530;47.990;7.866;2023-10-09T02:41:51;12.70;1.00
5023;DHT22;2530;47.990;7.866;2023-10-09T02:44:20;12.70;1.00
5023;DHT22;2530;47.990;7.866;2023-10-09T02:46:50;12.60;1.00
5023;DHT22;2530;47.990;7.866;2023-10-09T02:49:16;12.40;1.00
5023;DHT22;2530;47.990;7.866;2023-10-09T02:51:41;12.40;1.00
5023;DHT22;2530;47.990;7.866;2023-10-09T02:54:13;12.40;1.00
5023;DHT22;2530;47.990;7.866;2023-10-09T02:56:48;12.40;1.00
5023;DHT22;2530;47.990;7.866;2023-10-09T02:59:33;12.40;1.00
5023;DHT22;2530;47.990;7.866;2023-10-09T03:01:59;12.40;1.00
5023;DHT22;2530;47.990;7.866;2023-10-09T03:04:26;12.40;1.00
5023;DHT22;2530;47.990;7.866;2023-10-09T03:06:57;12.50;1.00
5023;DHT22;2530;47.990;7.866;2023-10-09T03:09:23;12.40;1.00
5023;DHT22;2530;47.990;7.866;2023-10-09T03:11:54;12.50;1.00
5023;DHT22;2530;47.990;7.866;2023-10-09T03:14:23;12.50;1.00
5023;DHT22;2530;47.990;7.866;2023-10-09T03:16:55;12.30;1.00
5023;DHT22;2530;47.990;7.866;2023-10-09T03:19:25;12.60;1.00
5023;DHT22;2530;47.990;7.866;2023-10-09T03:21:52;12.30;1.00
5023;DHT22;2530;47.990;7.866;2023-10-09T03:24:17;12.40;1.00
5023;DHT22;2530;47.990;7.866;2023-10-09T03:26:43;12.30;1.00
5023;DHT22;2530;47.990;7.866;2023-10-09T03:29:11;12.40;1.00
5023;DHT22;2530;47.990;7.866;2023-10-09T03:31:37;12.40;1.00
5023;DHT22;2530;47.990;7.866;2023-10-09T03:34:04;12.50;1.00
5023;DHT22;2530;47.990;7.866;2023-10-09T03:36:30;12.20;1.00
5023;DHT22;2530;47.990;7.866;2023-10-09T03:39:03;12.50;1.00
5023;DHT22;2530;47.990;7.866;2023-10-09T03:41:43;12.50;1.00
5023;DHT22;2530;47.990;7.866;2023-10-09T03:44:13;12.50;1.00
5023;DHT22;2530;47.990;7.866;2023-10-09T03:46:39;12.70;1.00
5023;DHT22;2530;47.990;7.866;2023-10-09T03:49:09;12.40;1.00
5023;DHT22;2530;47.990;7.866;2023-10-09T03:51:37;12.60;1.00
5023;DHT22;2530;47.990;7.866;2023-10-09T03:54:03;12.30;1.00
5023;DHT22;2530;47.990;7.866;2023-10-09T03:56:33;13.00;1.00
5023;DHT22;2530;47.990;7.866;2023-10-09T03:58:58;12.50;1.00
5023;DHT22;2530;47.990;7.866;2023-10-09T04:01:24;12.40;1.00
5023;DHT22;2530;47.990;7.866;2023-10-09T04:04:03;12.60;1.00
5023;DHT22;2530;47.990;7.866;2023-10-09T04:06:31;12.60;1.00
5023;DHT22;2530;47.990;7.866;2023-10-09T04:09:07;12.50;1.00
5023;DHT22;2530;47.990;7.866;2023-10-09T04:11:45;12.30;1.00
5023;DHT22;2530;47.990;7.866;2023-10-09T04:14:23;12.20;1.00
5023;DHT22;2530;47.990;7.866;2023-10-09T04:17:02;12.30;1.00
5023;DHT22;2530;47.990;7.866;2023-10-09T04:19:46;12.20;1.00
5023;DHT22;2530;47.990;7.866;2023-10-09T04:22:38;12.30;1.00
5023;DHT22;2530;47.990;7.866;2023-10-09T04:25:22;12.50;1.00
5023;DHT22;2530;47.990;7.866;2023-10-09T04:28:08;12.30;1.00
5023;DHT22;2530;47.990;7.866;2023-10-09T04:30:40;12.30;1.00
5023;DHT22;2530;47.990;7.866;2023-10-09T04:33:10;12.30;1.00
5023;DHT22;2530;47.990;7.866;2023-10-09T04:36:08;12.10;1.00
5023;DHT22;2530;47.990;7.866;2023-10-09T04:38:49;12.20;1.00
5023;DHT22;2530;47.990;7.866;2023-10-09T04:41:32;12.20;1.00
5023;DHT22;2530;47.990;7.866;2023-10-09T04:44:06;12.00;1.00
5023;DHT22;2530;47.990;7.866;2023-10-09T04:47:01;12.20;1.00
5023;DHT22;2530;47.990;7.866;2023-10-09T04:49:37;12.10;1.00
5023;DHT22;2530;47.990;7.866;2023-10-09T04:52:15;12.20;1.00
5023;DHT22;2530;47.990;7.866;2023-10-09T04:54:45;12.20;1.00
5023;DHT22;2530;47.990;7.866;2023-10-09T04:57:29;12.20;1.00
5023;DHT22;2530;47.990;7.866;2023-10-09T05:00:06;12.20;1.00
5023;DHT22;2530;47.990;7.866;2023-10-09T05:02:48;12.50;1.00
5023;DHT22;2530;47.990;7.866;2023-10-09T05:05:20;12.30;1.00
5023;DHT22;2530;47.990;7.866;2023-10-09T05:08:04;12.30;1.00
5023;DHT22;2530;47.990;7.866;2023-10-09T05:10:52;12.30;1.00
5023;DHT22;2530;47.990;7.866;2023-10-09T05:13:27;12.40;1.00
5023;DHT22;2530;47.990;7.866;2023-10-09T05:16:09;12.40;1.00
5023;DHT22;2530;47.990;7.866;2023-10-09T05:18:47;12.10;1.00
5023;DHT22;2530;47.990;7.866;2023-10-09T05:21:36;12.40;1.00
5023;DHT22;2530;47.990;7.866;2023-10-09T05:24:05;12.20;1.00
5023;DHT22;2530;47.990;7.866;2023-10-09T05:26:37;12.40;1.00
5023;DHT22;2530;47.990;7.866;2023-10-09T05:29:19;12.30;1.00
5023;DHT22;2530;47.990;7.866;2023-10-09T05:31:49;12.30;1.00
5023;DHT22;2530;47.990;7.866;2023-10-09T05:34:41;12.10;1.00
5023;DHT22;2530;47.990;7.866;2023-10-09T05:37:26;12.20;1.00
5023;DHT22;2530;47.990;7.866;2023-10-09T05:39:58;12.30;1.00
5023;DHT22;2530;47.990;7.866;2023-10-09T05:42:30;12.60;1.00
5023;DHT22;2530;47.990;7.866;2023-10-09T05:45:12;12.20;1.00
5023;DHT22;2530;47.990;7.866;2023-10-09T05:47:44;12.10;1.00
5023;DHT22;2530;47.990;7.866;2023-10-09T05:50:26;12.00;1.00
5023;DHT22;2530;47.990;7.866;2023-10-09T05:52:53;12.10;1.00
5023;DHT22;2530;47.990;7.866;2023-10-09T05:55:28;12.20;1.00
5023;DHT22;2530;47.990;7.866;2023-10-09T05:58:13;12.20;1.00
5023;DHT22;2530;47.990;7.866;2023-10-09T06:00:57;12.00;1.00
5023;DHT22;2530;47.990;7.866;2023-10-09T06:03:51;12.20;1.00
5023;DHT22;2530;47.990;7.866;2023-10-09T06:06:23;12.30;1.00
5023;DHT22;2530;47.990;7.866;2023-10-09T06:09:08;12.50;1.00
5023;DHT22;2530;47.990;7.866;2023-10-09T06:14:07;12.20;1.00
5023;DHT22;2530;47.990;7.866;2023-10-09T06:16:36;12.20;1.00
5023;DHT22;2530;47.990;7.866;2023-10-09T06:19:05;12.40;1.00
5023;DHT22;2530;47.990;7.866;2023-10-09T06:21:38;12.50;1.00
5023;DHT22;2530;47.990;7.866;2023-10-09T06:24:19;12.60;1.00
5023;DHT22;2530;47.990;7.866;2023-10-09T06:26:46;12.60;1.00
5023;DHT22;2530;47.990;7.866;2023-10-09T06:29:27;12.70;1.00
5023;DHT22;2530;47.990;7.866;2023-10-09T06:32:18;12.90;1.00
5023;DHT22;2530;47.990;7.866;2023-10-09T06:34:45;12.80;1.00
5023;DHT22;2530;47.990;7.866;2023-10-09T06:37:14;12.90;1.00
5023;DHT22;2530;47.990;7.866;2023-10-09T06:40:03;13.20;1.00
5023;DHT22;2530;47.990;7.866;2023-10-09T06:42:55;13.10;1.00
5023;DHT22;2530;47.990;7.866;2023-10-09T06:45:20;13.20;1.00
5023;DHT22;2530;47.990;7.866;2023-10-09T06:47:48;13.00;1.00
5023;DHT22;2530;47.990;7.866;2023-10-09T06:50:35;13.20;1.00
5023;DHT22;2530;47.990;7.866;2023-10-09T06:53:20;13.30;1.00
5023;DHT22;2530;47.990;7.866;2023-10-09T06:55:45;13.40;1.00
5023;DHT22;2530;47.990;7.866;2023-10-09T06:58:18;13.40;1.00
5023;DHT22;2530;47.990;7.866;2023-10-09T07:01:07;13.40;1.00
5023;DHT22;2530;47.990;7.866;2023-10-09T07:03:45;13.30;1.00
5023;DHT22;2530;47.990;7.866;2023-10-09T07:06:26;13.10;1.00
5023;DHT22;2530;47.990;7.866;2023-10-09T07:09:01;13.90;1.00
5023;DHT22;2530;47.990;7.866;2023-10-09T07:11:51;13.20;1.00
5023;DHT22;2530;47.990;7.866;2023-10-09T07:14:22;13.30;1.00
5023;DHT22;2530;47.990;7.866;2023-10-09T07:17:01;13.20;1.00
5023;DHT22;2530;47.990;7.866;2023-10-09T07:19:27;13.20;1.00
5023;DHT22;2530;47.990;7.866;2023-10-09T07:22:05;13.00;1.00
5023;DHT22;2530;47.990;7.866;2023-10-09T07:24:41;13.30;1.00
5023;DHT22;2530;47.990;7.866;2023-10-09T07:27:21;13.80;1.00
5023;DHT22;2530;47.990;7.866;2023-10-09T07:30:07;13.30;1.00
5023;DHT22;2530;47.990;7.866;2023-10-09T07:32:53;13.40;1.00
5023;DHT22;2530;47.990;7.866;2023-10-09T07:35:20;13.30;1.00
5023;DHT22;2530;47.990;7.866;2023-10-09T07:38:06;13.30;1.00
5023;DHT22;2530;47.990;7.866;2023-10-09T07:40:38;13.40;1.00
5023;DHT22;2530;47.990;7.866;2023-10-09T07:43:23;13.50;1.00
5023;DHT22;2530;47.990;7.866;2023-10-09T07:45:54;13.60;1.00
5023;DHT22;2530;47.990;7.866;2023-10-09T07:48:40;13.60;1.00
5023;DHT22;2530;47.990;7.866;2023-10-09T07:51:20;13.50;1.00
5023;DHT22;2530;47.990;7.866;2023-10-09T07:53:56;13.60;1.00
5023;DHT22;2530;47.990;7.866;2023-10-09T07:56:25;14.30;1.00
5023;DHT22;2530;47.990;7.866;2023-10-09T07:58:55;13.80;1.00
5023;DHT22;2530;47.990;7.866;2023-10-09T08:01:26;13.80;1.00
5023;DHT22;2530;47.990;7.866;2023-10-09T08:04:01;14.10;1.00
5023;DHT22;2530;47.990;7.866;2023-10-09T08:06:30;14.00;1.00
5023;DHT22;2530;47.990;7.866;2023-10-09T08:09:09;14.10;1.00
5023;DHT22;2530;47.990;7.866;2023-10-09T08:11:38;14.40;1.00
5023;DHT22;2530;47.990;7.866;2023-10-09T08:14:09;14.20;1.00
5023;DHT22;2530;47.990;7.866;2023-10-09T08:16:54;14.30;1.00
5023;DHT22;2530;47.990;7.866;2023-10-09T08:19:37;14.60;1.00
5023;DHT22;2530;47.990;7.866;2023-10-09T08:22:18;14.70;1.00
5023;DHT22;2530;47.990;7.866;2023-10-09T08:24:49;14.50;1.00
5023;DHT22;2530;47.990;7.866;2023-10-09T08:27:25;14.80;1.00
5023;DHT22;2530;47.990;7.866;2023-10-09T08:30:12;14.90;1.00
5023;DHT22;2530;47.990;7.866;2023-10-09T08:32:54;14.90;1.00
5023;DHT22;2530;47.990;7.866;2023-10-09T08:35:36;14.80;1.00
5023;DHT22;2530;47.990;7.866;2023-10-09T08:38:16;14.80;1.00
5023;DHT22;2530;47.990;7.866;2023-10-09T08:40:49;15.00;1.00
5023;DHT22;2530;47.990;7.866;2023-10-09T08:43:19;14.80;1.00
5023;DHT22;2530;47.990;7.866;2023-10-09T08:45:47;14.90;1.00
5023;DHT22;2530;47.990;7.866;2023-10-09T08:48:12;15.10;1.00
5023;DHT22;2530;47.990;7.866;2023-10-09T08:50:49;15.10;1.00
5023;DHT22;2530;47.990;7.866;2023-10-09T08:53:16;15.40;1.00
5023;DHT22;2530;47.990;7.866;2023-10-09T08:55:43;15.60;1.00
5023;DHT22;2530;47.990;7.866;2023-10-09T08:58:09;16.00;1.00
5023;DHT22;2530;47.990;7.866;2023-10-09T09:00:47;16.20;1.00
5023;DHT22;2530;47.990;7.866;2023-10-09T09:03:17;16.10;1.00
5023;DHT22;2530;47.990;7.866;2023-10-09T09:05:47;16.40;1.00
5023;DHT22;2530;47.990;7.866;2023-10-09T09:08:28;16.80;1.00
5023;DHT22;2530;47.990;7.866;2023-10-09T09:14:05;17.60;1.00
5023;DHT22;2530;47.990;7.866;2023-10-09T09:16:44;17.80;1.00
5023;DHT22;2530;47.990;7.866;2023-10-09T09:19:14;18.10;1.00
5023;DHT22;2530;47.990;7.866;2023-10-09T09:21:48;18.30;1.00
5023;DHT22;2530;47.990;7.866;2023-10-09T09:24:14;18.10;1.00
5023;DHT22;2530;47.990;7.866;2023-10-09T09:26:46;18.50;1.00
5023;DHT22;2530;47.990;7.866;2023-10-09T09:29:15;18.80;1.00
5023;DHT22;2530;47.990;7.866;2023-10-09T09:31:55;19.40;1.00
5023;DHT22;2530;47.990;7.866;2023-10-09T09:34:48;19.20;1.00
5023;DHT22;2530;47.990;7.866;2023-10-09T09:37:24;19.20;1.00
5023;DHT22;2530;47.990;7.866;2023-10-09T09:39:56;19.50;1.00
5023;DHT22;2530;47.990;7.866;2023-10-09T09:42:23;20.80;1.00
5023;DHT22;2530;47.990;7.866;2023-10-09T09:44:52;20.00;1.00
5023;DHT22;2530;47.990;7.866;2023-10-09T09:47:19;21.30;1.00
5023;DHT22;2530;47.990;7.866;2023-10-09T09:49:55;20.20;1.00
5023;DHT22;2530;47.990;7.866;2023-10-09T09:52:36;20.50;1.00
5023;DHT22;2530;47.990;7.866;2023-10-09T09:55:10;20.20;1.00
5023;DHT22;2530;47.990;7.866;2023-10-09T09:57:44;20.80;1.00
5023;DHT22;2530;47.990;7.866;2023-10-09T10:00:12;21.20;1.00
5023;DHT22;2530;47.990;7.866;2023-10-09T10:03:36;21.10;1.00
5023;DHT22;2530;47.990;7.866;2023-10-09T10:05:55;20.90;1.00
5023;DHT22;2530;47.990;7.866;2023-10-09T10:08:23;22.30;1.00
5023;DHT22;2530;47.990;7.866;2023-10-09T10:10:57;21.10;1.00
5023;DHT22;2530;47.990;7.866;2023-10-09T10:19:03;21.60;1.00
5023;DHT22;2530;47.990;7.866;2023-10-09T10:21:44;21.90;1.00
5023;DHT22;2530;47.990;7.866;2023-10-09T10:29:43;21.90;1.00
5023;DHT22;2530;47.990;7.866;2023-10-09T10:32:11;22.10;1.00
5023;DHT22;2530;47.990;7.866;2023-10-09T10:37:15;22.20;1.00
5023;DHT22;2530;47.990;7.866;2023-10-09T10:39:50;22.80;1.00
5023;DHT22;2530;47.990;7.866;2023-10-09T10:42:16;23.40;1.00
5023;DHT22;2530;47.990;7.866;2023-10-09T10:45:01;23.80;1.00
5023;DHT22;2530;47.990;7.866;2023-10-09T10:47:27;23.30;1.00
5023;DHT22;2530;47.990;7.866;2023-10-09T10:50:03;23.20;1.00
5023;DHT22;2530;47.990;7.866;2023-10-09T10:53:13;23.40;1.00
5023;DHT22;2530;47.990;7.866;2023-10-09T10:56:02;23.50;1.00
5023;DHT22;2530;47.990;7.866;2023-10-09T10:58:41;24.00;1.00
5023;DHT22;2530;47.990;7.866;2023-10-09T11:01:33;24.00;1.00
5023;DHT22;2530;47.990;7.866;2023-10-09T11:04:18;24.60;1.00
5023;DHT22;2530;47.990;7.866;2023-10-09T11:06:53;24.50;1.00
5023;DHT22;2530;47.990;7.866;2023-10-09T11:09:51;24.60;1.00
5023;DHT22;2530;47.990;7.866;2023-10-09T11:12:30;24.30;1.00
5023;DHT22;2530;47.990;7.866;2023-10-09T11:15:11;24.20;1.00
5023;DHT22;2530;47.990;7.866;2023-10-09T11:18:05;25.00;1.00
5023;DHT22;2530;47.990;7.866;2023-10-09T11:20:52;24.50;1.00
5023;DHT22;2530;47.990;7.866;2023-10-09T11:23:31;25.40;1.00
5023;DHT22;2530;47.990;7.866;2023-10-09T11:26:03;25.40;1.00
5023;DHT22;2530;47.990;7.866;2023-10-09T11:29:10;25.50;1.00
5023;DHT22;2530;47.990;7.866;2023-10-09T11:31:56;25.40;1.00
5023;DHT22;2530;47.990;7.866;2023-10-09T11:34:23;25.70;1.00
5023;DHT22;2530;47.990;7.866;2023-10-09T11:37:15;25.50;1.00
5023;DHT22;2530;47.990;7.866;2023-10-09T11:39:41;26.00;1.00
5023;DHT22;2530;47.990;7.866;2023-10-09T11:42:19;25.60;1.00
5023;DHT22;2530;47.990;7.866;2023-10-09T11:45:18;25.40;1.00
5023;DHT22;2530;47.990;7.866;2023-10-09T11:47:52;25.00;1.00
5023;DHT22;2530;47.990;7.866;2023-10-09T11:50:45;25.10;1.00
5023;DHT22;2530;47.990;7.866;2023-10-09T11:53:40;25.40;1.00
5023;DHT22;2530;47.990;7.866;2023-10-09T11:56:09;25.80;1.00
5023;DHT22;2530;47.990;7.866;2023-10-09T11:58:39;25.40;1.00
5023;DHT22;2530;47.990;7.866;2023-10-09T12:01:11;24.90;1.00
5023;DHT22;2530;47.990;7.866;2023-10-09T12:03:43;25.30;1.00
5023;DHT22;2530;47.990;7.866;2023-10-09T12:06:09;25.70;1.00
5023;DHT22;2530;47.990;7.866;2023-10-09T12:08:38;25.00;1.00
5023;DHT22;2530;47.990;7.866;2023-10-09T12:11:07;25.20;1.00
5023;DHT22;2530;47.990;7.866;2023-10-09T12:13:37;25.00;1.00
5023;DHT22;2530;47.990;7.866;2023-10-09T12:16:04;25.50;1.00
5023;DHT22;2530;47.990;7.866;2023-10-09T12:18:36;24.90;1.00
5023;DHT22;2530;47.990;7.866;2023-10-09T12:21:05;25.20;1.00
5023;DHT22;2530;47.990;7.866;2023-10-09T12:23:31;24.60;1.00
5023;DHT22;2530;47.990;7.866;2023-10-09T12:26:04;24.70;1.00
5023;DHT22;2530;47.990;7.866;2023-10-09T12:28:30;25.20;1.00
5023;DHT22;2530;47.990;7.866;2023-10-09T12:30:59;24.40;1.00
5023;DHT22;2530;47.990;7.866;2023-10-09T12:33:27;24.60;1.00
5023;DHT22;2530;47.990;7.866;2023-10-09T12:35:54;24.90;1.00
5023;DHT22;2530;47.990;7.866;2023-10-09T12:38:25;24.50;1.00
5023;DHT22;2530;47.990;7.866;2023-10-09T12:41:07;24.70;1.00
5023;DHT22;2530;47.990;7.866;2023-10-09T12:43:53;24.70;1.00
5023;DHT22;2530;47.990;7.866;2023-10-09T12:46:20;24.60;1.00
5023;DHT22;2530;47.990;7.866;2023-10-09T12:48:53;25.40;1.00
5023;DHT22;2530;47.990;7.866;2023-10-09T12:51:23;25.20;1.00
5023;DHT22;2530;47.990;7.866;2023-10-09T12:53:55;26.30;1.00
5023;DHT22;2530;47.990;7.866;2023-10-09T12:56:24;25.90;1.00
5023;DHT22;2530;47.990;7.866;2023-10-09T12:59:00;26.10;1.00
5023;DHT22;2530;47.990;7.866;2023-10-09T13:01:27;26.40;1.00
5023;DHT22;2530;47.990;7.866;2023-10-09T13:03:58;25.30;1.00
5023;DHT22;2530;47.990;7.866;2023-10-09T13:06:25;26.50;1.00
5023;DHT22;2530;47.990;7.866;2023-10-09T13:08:51;25.80;1.00
5023;DHT22;2530;47.990;7.866;2023-10-09T13:11:17;26.90;1.00
5023;DHT22;2530;47.990;7.866;2023-10-09T13:13:44;26.60;1.00
5023;DHT22;2530;47.990;7.866;2023-10-09T13:16:14;27.00;1.00
5023;DHT22;2530;47.990;7.866;2023-10-09T13:18:51;26.30;1.00
5023;DHT22;2530;47.990;7.866;2023-10-09T13:21:22;26.40;1.00
5023;DHT22;2530;47.990;7.866;2023-10-09T13:23:49;27.10;1.00
5023;DHT22;2530;47.990;7.866;2023-10-09T13:26:17;27.20;1.00
5023;DHT22;2530;47.990;7.866;2023-10-09T13:28:46;28.10;1.00
5023;DHT22;2530;47.990;7.866;2023-10-09T13:31:15;28.50;1.00
5023;DHT22;2530;47.990;7.866;2023-10-09T13:33:42;27.90;1.00
5023;DHT22;2530;47.990;7.866;2023-10-09T13:36:11;27.20;1.00
5023;DHT22;2530;47.990;7.866;2023-10-09T13:38:45;27.30;1.00
5023;DHT22;2530;47.990;7.866;2023-10-09T13:41:11;28.10;1.00
5023;DHT22;2530;47.990;7.866;2023-10-09T13:43:43;27.50;1.00
5023;DHT22;2530;47.990;7.866;2023-10-09T13:46:10;27.40;1.00
5023;DHT22;2530;47.990;7.866;2023-10-09T13:48:39;27.40;1.00
5023;DHT22;2530;47.990;7.866;2023-10-09T13:51:07;27.40;1.00
5023;DHT22;2530;47.990;7.866;2023-10-09T13:53:34;27.80;1.00
5023;DHT22;2530;47.990;7.866;2023-10-09T13:56:02;28.10;1.00
5023;DHT22;2530;47.990;7.866;2023-10-09T13:58:28;26.30;1.00
5023;DHT22;2530;47.990;7.866;2023-10-09T14:00:53;28.00;1.00
5023;DHT22;2530;47.990;7.866;2023-10-09T14:03:19;28.80;1.00
5023;DHT22;2530;47.990;7.866;2023-10-09T14:05:49;29.70;1.00
5023;DHT22;2530;47.990;7.866;2023-10-09T14:08:20;28.80;1.00
5023;DHT22;2530;47.990;7.866;2023-10-09T14:10:51;29.00;1.00
5023;DHT22;2530;47.990;7.866;2023-10-09T14:13:16;28.10;1.00
5023;DHT22;2530;47.990;7.866;2023-10-09T14:15:51;29.30;1.00
5023;DHT22;2530;47.990;7.866;2023-10-09T14:18:17;28.80;1.00
5023;DHT22;2530;47.990;7.866;2023-10-09T14:20:42;27.70;1.00
5023;DHT22;2530;47.990;7.866;2023-10-09T14:23:08;26.80;1.00
5023;DHT22;2530;47.990;7.866;2023-10-09T14:25:37;27.00;1.00
5023;DHT22;2530;47.990;7.866;2023-10-09T14:28:08;26.80;1.00
5023;DHT22;2530;47.990;7.866;2023-10-09T14:30:37;26.20;1.00
5023;DHT22;2530;47.990;7.866;2023-10-09T14:33:11;27.00;1.00
5023;DHT22;2530;47.990;7.866;2023-10-09T14:35:41;26.00;1.00
5023;DHT22;2530;47.990;7.866;2023-10-09T14:38:08;25.70;1.00
5023;DHT22;2530;47.990;7.866;2023-10-09T14:40:44;26.50;1.00
5023;DHT22;2530;47.990;7.866;2023-10-09T14:43:10;25.30;1.00
5023;DHT22;2530;47.990;7.866;2023-10-09T14:45:48;25.50;1.00
5023;DHT22;2530;47.990;7.866;2023-10-09T14:48:15;24.70;1.00
5023;DHT22;2530;47.990;7.866;2023-10-09T14:50:50;24.80;1.00
5023;DHT22;2530;47.990;7.866;2023-10-09T14:53:19;25.90;1.00
5023;DHT22;2530;47.990;7.866;2023-10-09T14:55:45;25.10;1.00
5023;DHT22;2530;47.990;7.866;2023-10-09T14:58:13;26.10;1.00
5023;DHT22;2530;47.990;7.866;2023-10-09T15:00:38;26.20;1.00
5023;DHT22;2530;47.990;7.866;2023-10-09T15:03:11;25.60;1.00
5023;DHT22;2530;47.990;7.866;2023-10-09T15:05:42;25.00;1.00
5023;DHT22;2530;47.990;7.866;2023-10-09T15:08:08;24.10;1.00
5023;DHT22;2530;47.990;7.866;2023-10-09T15:10:49;25.40;1.00
5023;DHT22;2530;47.990;7.866;2023-10-09T15:13:19;23.80;1.00
5023;DHT22;2530;47.990;7.866;2023-10-09T15:15:45;24.80;1.00
5023;DHT22;2530;47.990;7.866;2023-10-09T15:18:11;24.30;1.00
5023;DHT22;2530;47.990;7.866;2023-10-09T15:20:38;23.90;1.00
5023;DHT22;2530;47.990;7.866;2023-10-09T15:23:05;23.30;1.00
5023;DHT22;2530;47.990;7.866;2023-10-09T15:25:31;23.50;1.00
5023;DHT22;2530;47.990;7.866;2023-10-09T15:27:57;23.50;1.00
5023;DHT22;2530;47.990;7.866;2023-10-09T15:30:23;24.80;1.00
5023;DHT22;2530;47.990;7.866;2023-10-09T15:32:48;24.20;1.00
5023;DHT22;2530;47.990;7.866;2023-10-09T15:35:17;23.80;1.00
5023;DHT22;2530;47.990;7.866;2023-10-09T15:37:44;23.30;1.00
5023;DHT22;2530;47.990;7.866;2023-10-09T15:40:11;23.10;1.00
5023;DHT22;2530;47.990;7.866;2023-10-09T15:42:49;23.20;1.00
5023;DHT22;2530;47.990;7.866;2023-10-09T15:45:21;24.00;1.00
5023;DHT22;2530;47.990;7.866;2023-10-09T15:47:48;22.70;1.00
5023;DHT22;2530;47.990;7.866;2023-10-09T15:50:16;23.00;1.00
5023;DHT22;2530;47.990;7.866;2023-10-09T15:52:42;22.70;1.00
5023;DHT22;2530;47.990;7.866;2023-10-09T15:55:07;22.00;1.00
5023;DHT22;2530;47.990;7.866;2023-10-09T15:57:39;22.20;1.00
5023;DHT22;2530;47.990;7.866;2023-10-09T16:00:06;21.70;1.00
5023;DHT22;2530;47.990;7.866;2023-10-09T16:02:40;22.10;1.00
5023;DHT22;2530;47.990;7.866;2023-10-09T16:05:06;21.70;1.00
5023;DHT22;2530;47.990;7.866;2023-10-09T16:07:32;21.20;1.00
5023;DHT22;2530;47.990;7.866;2023-10-09T16:09:57;21.80;1.00
5023;DHT22;2530;47.990;7.866;2023-10-09T16:12:24;21.10;1.00
5023;DHT22;2530;47.990;7.866;2023-10-09T16:14:52;22.30;1.00
5023;DHT22;2530;47.990;7.866;2023-10-09T16:17:19;21.70;1.00
5023;DHT22;2530;47.990;7.866;2023-10-09T16:19:44;20.40;1.00
5023;DHT22;2530;47.990;7.866;2023-10-09T16:22:11;20.40;1.00
5023;DHT22;2530;47.990;7.866;2023-10-09T16:24:38;23.30;1.00
5023;DHT22;2530;47.990;7.866;2023-10-09T16:27:07;20.10;1.00
5023;DHT22;2530;47.990;7.866;2023-10-09T16:29:33;20.60;1.00
5023;DHT22;2530;47.990;7.866;2023-10-09T16:31:58;22.00;1.00
5023;DHT22;2530;47.990;7.866;2023-10-09T16:34:24;20.10;1.00
5023;DHT22;2530;47.990;7.866;2023-10-09T16:36:51;20.00;1.00
5023;DHT22;2530;47.990;7.866;2023-10-09T16:39:17;19.90;1.00
5023;DHT22;2530;47.990;7.866;2023-10-09T16:41:48;19.90;1.00
5023;DHT22;2530;47.990;7.866;2023-10-09T16:44:14;19.90;1.00
5023;DHT22;2530;47.990;7.866;2023-10-09T16:46:45;19.90;1.00
5023;DHT22;2530;47.990;7.866;2023-10-09T16:49:12;19.60;1.00
5023;DHT22;2530;47.990;7.866;2023-10-09T16:51:39;21.90;1.00
5023;DHT22;2530;47.990;7.866;2023-10-09T16:54:08;20.50;1.00
5023;DHT22;2530;47.990;7.866;2023-10-09T16:56:40;19.30;1.00
5023;DHT22;2530;47.990;7.866;2023-10-09T16:59:11;19.10;1.00
5023;DHT22;2530;47.990;7.866;2023-10-09T17:01:40;19.30;1.00
5023;DHT22;2530;47.990;7.866;2023-10-09T17:04:06;19.40;1.00
5023;DHT22;2530;47.990;7.866;2023-10-09T17:06:37;18.90;1.00
5023;DHT22;2530;47.990;7.866;2023-10-09T17:09:05;19.20;1.00
5023;DHT22;2530;47.990;7.866;2023-10-09T17:11:35;19.40;1.00
5023;DHT22;2530;47.990;7.866;2023-10-09T17:14:02;18.80;1.00
5023;DHT22;2530;47.990;7.866;2023-10-09T17:16:31;20.40;1.00
5023;DHT22;2530;47.990;7.866;2023-10-09T17:18:57;20.30;1.00